Currently 70°F in Riverside (Orangecrest), California, USA
70°F
70°F / 66°F
calm
0.00"
Monday, July 24, 2017 7:37 AM PDT

Riverside (Orangecrest), California Weather Summary
Last 36 Hours

Temperature Winds Hourly Humidity Dewpoint
Time Report Norm Report Norm Max Gusts Precip. Rpt. Norm Rpt. Norm Pressure
1,2Mon 07:37 AM  69.9°F  71°F  calm  calm  3 mph  0.00"  62%  63%  56°F  57°F  29.92"
Mon 07:00 AM  68.5°F  69°F  calm  calm  3 mph  0.00"  63%  68%  55°F  57°F  29.91"
Mon 06:00 AM  67.0°F  66°F  calm  1 mph  2 mph  0.00"  67%  74%  55°F  57°F  29.91"
Mon 05:00 AM  66.0°F  67°F  calm  1 mph  4 mph  0.00"  70%  72%  56°F  57°F  29.89"
3Mon 04:53 AM  65.8°F  67°F  1 mph S  1 mph  3 mph  ----  70%  72%  56°F  57°F  29.89"
Mon 04:00 AM  66.1°F  67°F  1 mph S  1 mph  6 mph  0.00"  70%  72%  56°F  57°F  29.88"
Mon 03:00 AM  66.3°F  68°F  2 mph SW  2 mph  5 mph  0.00"  70%  70%  56°F  57°F  29.89"
Mon 02:00 AM  66.0°F  68°F  calm  2 mph  7 mph  0.00"  71%  68%  56°F  57°F  29.90"
Mon 01:00 AM  66.3°F  69°F  2 mph W  3 mph  6 mph  0.00"  71%  65%  56°F  56°F  29.91"
Mon 12:00 AM  67.1°F  70°F  2 mph SW  3 mph  8 mph  0.00"  72%  62%  57°F  56°F  29.91"
Sun 11:00 PM  69.0°F  72°F  3 mph NW  3 mph  9 mph  0.00"  67%  56%  57°F  54°F  29.91"
Sun 10:00 PM  71.5°F  73°F  7 mph SW  3 mph  7 mph  0.00"  58%  50%  56°F  53°F  29.90"
Sun 09:00 PM  75.9°F  75°F  1 mph W  4 mph  12 mph  0.00"  45%  46%  53°F  52°F  29.88"
Sun 08:00 PM  78.7°F  78°F  5 mph W  5 mph  13 mph  0.00"  40%  41%  52°F  52°F  29.84"
Sun 07:00 PM  81.9°F  81°F  6 mph W  7 mph  20 mph  0.00"  30%  33%  46°F  49°F  29.81"
Sun 06:00 PM  84.4°F  84°F  11 mph SW  9 mph  17 mph  0.00"  28%  29%  46°F  47°F  29.80"
Sun 05:00 PM  88.3°F  87°F  8 mph SW  9 mph  16 mph  0.00"  21%  28%  42°F  49°F  29.81"
Sun 04:00 PM  90.1°F  88°F  10 mph SW  7 mph  15 mph  0.00"  26%  27%  49°F  49°F  29.81"
Sun 03:00 PM  89.4°F  88°F  6 mph SW  7 mph  15 mph  0.00"  26%  27%  49°F  49°F  29.83"
Sun 02:00 PM  89.2°F  88°F  4 mph W  6 mph  12 mph  0.00"  25%  26%  48°F  47°F  29.86"
Sun 01:00 PM  87.8°F  86°F  2 mph S  5 mph  14 mph  0.00"  29%  29%  50°F  48°F  29.88"
Sun 12:00 PM  85.6°F  83°F  6 mph SW  5 mph  10 mph  0.00"  33%  33%  52°F  51°F  29.89"
Sun 11:00 AM  82.9°F  81°F  3 mph W  4 mph  9 mph  0.00"  42%  39%  57°F  53°F  29.91"
Sun 10:00 AM  80.6°F  79°F  4 mph SW  3 mph  7 mph  0.00"  45%  42%  56°F  54°F  29.91"
Sun 09:00 AM  76.6°F  76°F  calm  2 mph  5 mph  0.00"  55%  48%  59°F  54°F  29.90"
Sun 08:00 AM  71.9°F  73°F  2 mph NW  1 mph  5 mph  0.00"  66%  58%  59°F  56°F  29.90"
Sun 07:00 AM  67.9°F  69°F  1 mph NW  calm  6 mph  0.00"  74%  66%  59°F  57°F  29.89"
Sun 06:00 AM  65.2°F  67°F  2 mph SW  1 mph  6 mph  0.00"  82%  72%  59°F  57°F  29.88"
Sun 05:00 AM  65.9°F  67°F  1 mph W  1 mph  8 mph  0.00"  80%  71%  59°F  57°F  29.88"
Sun 04:00 AM  66.8°F  67°F  calm  1 mph  8 mph  0.00"  77%  71%  59°F  57°F  29.87"
Sun 03:00 AM  67.6°F  67°F  2 mph SW  2 mph  8 mph  0.00"  75%  70%  59°F  57°F  29.87"
Sun 02:00 AM  68.5°F  68°F  2 mph SW  3 mph  7 mph  0.00"  73%  68%  59°F  56°F  29.88"
Sun 01:00 AM  69.3°F  69°F  2 mph W  3 mph  10 mph  0.00"  70%  65%  59°F  56°F  29.89"
Sun 12:00 AM  70.4°F  70°F  5 mph W  2 mph  9 mph  0.00"  67%  61%  59°F  56°F  29.90"
Sat 11:00 PM  71.5°F  72°F  5 mph SW  3 mph  7 mph  0.00"  64%  56%  58°F  54°F  29.91"
Sat 10:00 PM  74.1°F  73°F  1 mph SW  3 mph  8 mph  0.00"  57%  51%  58°F  53°F  29.89"
Sat 09:00 PM  76.2°F  75°F  4 mph W  4 mph  10 mph  0.00"  50%  48%  55°F  53°F  29.88"
Sat 08:00 PM  78.6°F  78°F  6 mph SW  5 mph  13 mph  0.00"  44%  42%  54°F  52°F  29.86"

  1. Current weather data. No green row appears if the current weather data is also the high or low for the current day.
  2. High temperature for the current day.
  3. Low temperature for the current day.

The Riverside (Orangecrest), California weather pages are a service of WeatherCurrents.
Copyright ©Mon Jul 24 07:37:46 PDT 2017  WeatherCurrents. All rights reserved. - Submit questions and comments - Privacy Policy

This page automatically refreshes every 10 minutes.